Weather History for KDNS - April, 2014

Change the Weather History Date:

Tuesday, April 8, 2014

  Actual Average Record
Temperature  
Mean Temperature 44 °F -  
Max Temperature 55 °F 55 °F 75 °F (2013)
Min Temperature 30 °F 35 °F 17 °F (1997)
Degree Days  
Heating Degree Days 22    
Moisture  
Dew Point 29 °F    
Average Humidity 61    
Maximum Humidity 93    
Minimum Humidity 26    
Precipitation  
Precipitation 0.00 in - - ()
Sea Level Pressure  
Sea Level Pressure 29.99 in    
Wind  
Wind Speed 10 mph (NNW)    
Max Wind Speed 23 mph    
Max Gust Speed 32 mph    
Visibility 10 miles    
Events      
Averages and records for this station are not official NWS values.
T = Trace of Precipitation, MM = Missing Value Source: NWS Daily Summary

Daily Weather History Graph

Daily Weather History Graph

Search for Another Location

Airport or City:

Trip Planner

Search our weather history database for the weather conditions in past years. The results will help you decide how hot, cold, wet, or windy it might be!

Date:

Astronomy

Apr. 08, 2014 Rise Set
Actual Time 6:52 AM CDT 7:54 PM CDT
Civil Twilight 6:23 AM CDT 8:23 PM CDT
Nautical Twilight 5:49 AM CDT 8:57 PM CDT
Astronomical Twilight 5:14 AM CDT 9:33 PM CDT
Moon 1:43 PM CDT (4/8) 3:11 AM CDT (4/8)
Length of Visible Light 13h 59m
Length of Day
13h 02m
Waxing Gibbous, 63% of the Moon is Illuminated
Apr 8
Waxing Gibbous
Apr 15
Full
Apr 22
Last Quarter
Apr 29
New
May 6
First Quarter

Hourly Weather History & Observations

Time (CDT) Temp. Windchill Dew Point Humidity Pressure Visibility Wind Dir Wind Speed Gust Speed Precip Events Conditions
12:15 AM 41.0 °F 38.0 °F 33.8 °F 76% 29.91 in 10.0 mi NW 4.6 mph - N/A   Clear
12:35 AM 41.0 °F 36.4 °F 33.8 °F 76% 29.91 in 10.0 mi NW 6.9 mph - N/A   Clear
12:55 AM 41.0 °F 36.4 °F 33.8 °F 76% 29.90 in 10.0 mi NNW 6.9 mph - N/A   Clear
1:15 AM 41.0 °F 36.4 °F 33.8 °F 76% 29.90 in 10.0 mi NNW 6.9 mph 12.7 mph N/A   Partly Cloudy
1:35 AM 41.0 °F 38.0 °F 33.8 °F 76% 29.90 in 10.0 mi NW 4.6 mph - N/A   Partly Cloudy
1:55 AM 39.2 °F 35.9 °F 33.8 °F 81% 29.90 in 10.0 mi Variable 4.6 mph - N/A   Scattered Clouds
2:15 AM 41.0 °F 34.7 °F 35.6 °F 81% 29.90 in 10.0 mi NW 10.4 mph - N/A   Overcast
2:35 AM 41.0 °F 35.2 °F 35.6 °F 81% 29.90 in 10.0 mi NW 9.2 mph - N/A   Overcast
2:55 AM 41.0 °F 35.2 °F 35.6 °F 81% 29.90 in 10.0 mi NW 9.2 mph - N/A   Overcast
3:15 AM 39.2 °F 32.5 °F 33.8 °F 81% 29.90 in 10.0 mi NW 10.4 mph - N/A   Overcast
3:35 AM 39.2 °F 33.0 °F 33.8 °F 81% 29.90 in 10.0 mi NW 9.2 mph - N/A   Scattered Clouds
3:55 AM 39.2 °F 32.5 °F 33.8 °F 81% 29.90 in 10.0 mi NW 10.4 mph - N/A   Mostly Cloudy
4:15 AM 37.4 °F 31.4 °F 33.8 °F 87% 29.90 in 10.0 mi NW 8.1 mph 13.8 mph N/A   Overcast
4:35 AM 37.4 °F 29.3 °F 33.8 °F 87% 29.91 in 10.0 mi NW 12.7 mph - N/A   Scattered Clouds
4:55 AM 37.4 °F 30.8 °F 33.8 °F 87% 29.91 in 10.0 mi NW 9.2 mph - N/A   Clear
5:15 AM 35.6 °F 27.5 °F 33.8 °F 93% 29.92 in 10.0 mi NNW 11.5 mph - N/A   Clear
5:35 AM 35.6 °F 29.2 °F 33.8 °F 93% 29.92 in 10.0 mi NNW 8.1 mph - N/A   Clear
5:55 AM 35.6 °F 28.6 °F 33.8 °F 93% 29.93 in 10.0 mi NNW 9.2 mph 15.0 mph N/A   Clear
6:15 AM 35.6 °F 29.9 °F 33.8 °F 93% 29.94 in 10.0 mi NW 6.9 mph - N/A   Clear
6:35 AM 35.6 °F 29.9 °F 33.8 °F 93% 29.94 in 10.0 mi NW 6.9 mph - N/A   Scattered Clouds
6:55 AM 33.8 °F 28.6 °F 32.0 °F 93% 29.95 in 10.0 mi NW 5.8 mph - N/A   Mostly Cloudy
7:15 AM 33.8 °F - 32.0 °F 93% 29.96 in 10.0 mi Calm Calm - N/A   Scattered Clouds
7:35 AM 35.6 °F 31.7 °F 33.8 °F 93% 29.97 in 10.0 mi Variable 4.6 mph - N/A   Mostly Cloudy
7:55 AM 35.6 °F 29.2 °F 33.8 °F 93% 29.98 in 10.0 mi NNW 8.1 mph 15.0 mph N/A   Mostly Cloudy
8:15 AM 35.6 °F 27.1 °F 33.8 °F 93% 29.99 in 10.0 mi NNW 12.7 mph - N/A   Mostly Cloudy
8:35 AM 37.4 °F 28.2 °F 35.6 °F 93% 29.99 in 10.0 mi NNW 16.1 mph - N/A   Overcast
8:55 AM 39.2 °F 32.0 °F 35.6 °F 87% 30.00 in 10.0 mi North 11.5 mph - N/A   Overcast
9:15 AM 39.2 °F 30.5 °F 35.6 °F 87% 30.00 in 10.0 mi NNW 16.1 mph 25.3 mph N/A   Overcast
9:35 AM 41.0 °F 32.8 °F 37.4 °F 87% 30.01 in 10.0 mi NNW 16.1 mph 21.9 mph N/A   Overcast
9:55 AM 42.8 °F 35.8 °F 37.4 °F 81% 30.01 in 10.0 mi NNW 13.8 mph 23.0 mph N/A   Overcast
10:15 AM 42.8 °F 34.8 °F 35.6 °F 76% 30.02 in 10.0 mi North 17.3 mph - N/A   Mostly Cloudy
10:35 AM 44.6 °F 37.8 °F 35.6 °F 71% 30.03 in 10.0 mi North 15.0 mph 27.6 mph N/A   Mostly Cloudy
10:55 AM 46.4 °F 40.1 °F 35.6 °F 66% 30.03 in 10.0 mi North 15.0 mph 23.0 mph N/A   Scattered Clouds
11:15 AM 48.2 °F - 35.6 °F 62% 30.03 in 10.0 mi NNW 17.3 mph 23.0 mph N/A   Mostly Cloudy
11:35 AM 48.2 °F - 33.8 °F 58% 30.04 in 10.0 mi NW 16.1 mph 24.2 mph N/A   Partly Cloudy
11:55 AM 50.0 °F - 30.2 °F 47% 30.04 in 10.0 mi North 19.6 mph 26.5 mph N/A   Clear
12:15 PM 50.0 °F - 30.2 °F 47% 30.04 in 10.0 mi NW 21.9 mph - N/A   Clear
12:35 PM 51.8 °F - 28.4 °F 41% 30.03 in 10.0 mi NNW 20.7 mph - N/A   Clear
12:55 PM 51.8 °F - 28.4 °F 41% 30.03 in 10.0 mi NNW 18.4 mph 25.3 mph N/A   Clear
1:15 PM 53.6 °F - 26.6 °F 35% 30.03 in 10.0 mi NNW 19.6 mph 26.5 mph N/A   Clear
1:35 PM 53.6 °F - 24.8 °F 33% 30.03 in 10.0 mi NNW 20.7 mph 27.6 mph N/A   Clear
1:55 PM 53.6 °F - 24.8 °F 33% 30.03 in 10.0 mi NNW 16.1 mph 25.3 mph N/A   Clear
2:15 PM 53.6 °F - 24.8 °F 33% 30.03 in 10.0 mi NNW 16.1 mph 25.3 mph N/A   Clear
2:35 PM 55.4 °F - 23.0 °F 29% 30.02 in 10.0 mi North 23.0 mph 28.8 mph N/A   Clear
2:55 PM 55.4 °F - 21.2 °F 26% 30.02 in 10.0 mi North 19.6 mph 32.2 mph N/A   Clear
3:15 PM 55.4 °F - 24.8 °F 31% 30.02 in 10.0 mi NNW 17.3 mph 27.6 mph N/A   Partly Cloudy
3:35 PM 55.4 °F - 23.0 °F 29% 30.02 in 10.0 mi North 15.0 mph 27.6 mph N/A   Clear
3:55 PM 55.4 °F - 23.0 °F 29% 30.02 in 10.0 mi NNW 15.0 mph 25.3 mph N/A   Partly Cloudy
4:15 PM 55.4 °F - 23.0 °F 29% 30.02 in 10.0 mi North 18.4 mph 27.6 mph N/A   Partly Cloudy
4:35 PM 55.4 °F - 23.0 °F 29% 30.02 in 10.0 mi NNW 15.0 mph 26.5 mph N/A   Partly Cloudy
4:55 PM 55.4 °F - 21.2 °F 26% 30.02 in 10.0 mi NNW 16.1 mph 24.2 mph N/A   Partly Cloudy
5:15 PM 55.4 °F - 23.0 °F 29% 30.02 in 10.0 mi North 13.8 mph 21.9 mph N/A   Clear
5:35 PM 55.4 °F - 21.2 °F 26% 30.01 in 10.0 mi NNW 16.1 mph - N/A   Clear
5:55 PM 55.4 °F - 21.2 °F 26% 30.02 in 10.0 mi NNW 12.7 mph 21.9 mph N/A   Clear
6:15 PM 55.4 °F - 23.0 °F 29% 30.02 in 10.0 mi NNW 15.0 mph - N/A   Clear
6:35 PM 53.6 °F - 21.2 °F 28% 30.03 in 10.0 mi NNW 11.5 mph 21.9 mph N/A   Clear
6:55 PM 51.8 °F - 21.2 °F 30% 30.04 in 10.0 mi NNW 15.0 mph - N/A   Clear
7:15 PM 51.8 °F - 23.0 °F 33% 30.04 in 10.0 mi NNW 9.2 mph - N/A   Clear
7:35 PM 50.0 °F - 23.0 °F 35% 30.04 in 10.0 mi NNW 9.2 mph - N/A   Clear
7:55 PM 46.4 °F 43.5 °F 23.0 °F 40% 30.04 in 10.0 mi NNW 5.8 mph - N/A   Clear
8:15 PM 46.4 °F 44.3 °F 23.0 °F 40% 30.05 in 10.0 mi NNW 4.6 mph - N/A   Clear
8:35 PM 46.4 °F 45.2 °F 23.0 °F 40% 30.05 in 10.0 mi North 3.5 mph - N/A   Clear
8:55 PM 44.6 °F - 23.0 °F 43% 30.05 in 10.0 mi Calm Calm - N/A   Clear
9:15 PM 41.0 °F 39.0 °F 24.8 °F 53% 30.06 in 10.0 mi SE 3.5 mph - N/A   Clear
9:35 PM 41.0 °F 38.0 °F 24.8 °F 53% 30.06 in 10.0 mi ESE 4.6 mph - N/A   Clear
9:55 PM 37.4 °F - 23.0 °F 56% 30.05 in 10.0 mi Calm Calm - N/A   Clear
10:15 PM 37.4 °F 33.8 °F 24.8 °F 60% 30.05 in 10.0 mi East 4.6 mph - N/A   Clear
10:35 PM 35.6 °F 30.7 °F 23.0 °F 60% 30.04 in 10.0 mi ESE 5.8 mph - N/A   Clear
10:55 PM 33.8 °F - 24.8 °F 70% 30.04 in 10.0 mi Calm Calm - N/A   Clear
11:15 PM 32.0 °F - 23.0 °F 69% 30.04 in 10.0 mi Calm Calm - N/A   Clear
11:35 PM 32.0 °F - 23.0 °F 69% 30.04 in 10.0 mi Calm Calm - N/A   Clear
11:55 PM 30.2 °F - 23.0 °F 75% 30.04 in 10.0 mi Calm Calm - N/A   Clear